Time;durP1;ratioP1;P1;durP2;ratioP2;P2;SDS_P1;SDS_P2;PMS_P1;PMS_P2;Temp;Humidity;BMP_temperature;BMP_pressure;BME280_temperature;BME280_humidity;BME280_pressure;Samples;Min_cycle;Max_cycle;Signal;HPM_P1;HPM_P2
2022/08/19 00:00:35;;;;;;;11.15;7.15;;;26.90;65.80;;;;;;5052219;28;20029;-76
2022/08/19 00:03:00;;;;;;;9.02;6.53;;;26.90;65.30;;;;;;5051005;28;20076;-76
2022/08/19 00:05:26;;;;;;;11.05;6.90;;;26.90;65.90;;;;;;5051182;28;20040;-76
2022/08/19 00:07:52;;;;;;;14.25;9.10;;;26.90;65.40;;;;;;5050787;28;20033;-76
2022/08/19 00:10:19;;;;;;;21.98;16.05;;;26.90;66.10;;;;;;5051945;28;20021;-76
2022/08/19 00:12:45;;;;;;;15.02;10.40;;;26.90;65.60;;;;;;5051070;28;20075;-76
2022/08/19 00:15:14;;;;;;;12.35;8.82;;;26.90;65.20;;;;;;5051557;28;20028;-76
2022/08/19 00:17:42;;;;;;;12.23;8.75;;;26.90;65.20;;;;;;5034521;28;20090;-76
2022/08/19 00:20:10;;;;;;;11.85;8.18;;;26.90;65.50;;;;;;5034508;28;20029;-76
2022/08/19 00:22:37;;;;;;;11.52;8.70;;;26.90;66.20;;;;;;5052168;28;20044;-76
2022/08/19 00:25:04;;;;;;;13.20;8.98;;;26.90;65.60;;;;;;5050090;28;20037;-76
2022/08/19 00:27:30;;;;;;;11.50;8.48;;;26.90;65.60;;;;;;5050027;28;20029;-75
2022/08/19 00:29:56;;;;;;;10.70;8.23;;;26.90;65.60;;;;;;5051820;28;20035;-75
2022/08/19 00:32:22;;;;;;;11.65;8.07;;;26.90;65.70;;;;;;5062835;22;20504;-80
2022/08/19 00:34:48;;;;;;;11.60;7.60;;;26.90;65.70;;;;;;5034169;28;20071;-80
2022/08/19 00:37:14;;;;;;;12.23;8.10;;;26.90;65.40;;;;;;5029600;28;20029;-79
2022/08/19 00:39:39;;;;;;;12.32;7.95;;;26.90;65.40;;;;;;5030440;28;20033;-80
2022/08/19 00:42:06;;;;;;;13.18;8.68;;;26.90;65.70;;;;;;5030349;28;20040;-81
2022/08/19 00:44:32;;;;;;;12.13;8.68;;;26.90;65.10;;;;;;5031494;28;20026;-80
2022/08/19 00:46:58;;;;;;;10.77;8.02;;;26.90;65.10;;;;;;5046257;28;20124;-80
2022/08/19 00:49:45;;;;;;;10.18;7.75;;;26.90;65.40;;;;;;5030296;28;20394;-80
2022/08/19 00:52:19;;;;;;;11.68;8.40;;;26.90;65.30;;;;;;5030104;28;20453;-79
2022/08/19 00:54:47;;;;;;;13.75;7.43;;;26.90;65.40;;;;;;5031282;28;20025;-80
2022/08/19 00:57:16;;;;;;;10.77;7.72;;;26.90;66.90;;;;;;5029413;28;20470;-80
2022/08/19 00:59:47;;;;;;;11.82;7.65;;;26.90;65.60;;;;;;5031391;28;20025;-79
2022/08/19 01:02:14;;;;;;;10.60;7.70;;;26.90;65.80;;;;;;5031339;28;20482;-80
2022/08/19 01:04:40;;;;;;;10.65;7.40;;;26.90;65.50;;;;;;5031323;28;20072;-80
2022/08/19 01:07:07;;;;;;;10.25;7.85;;;26.90;65.70;;;;;;5030464;28;20438;-80
2022/08/19 01:09:33;;;;;;;13.43;8.30;;;26.90;65.60;;;;;;5030054;28;20366;-80
2022/08/19 01:12:00;;;;;;;10.07;7.30;;;26.80;65.70;;;;;;5029887;28;20060;-80
2022/08/19 01:14:26;;;;;;;10.23;7.53;;;26.80;65.70;;;;;;5031236;28;20075;-80
2022/08/19 01:16:55;;;;;;;12.85;8.82;;;26.80;65.60;;;;;;5030380;28;20018;-80
2022/08/19 01:19:28;;;;;;;9.77;7.75;;;26.80;65.50;;;;;;5033607;28;20397;-80
2022/08/19 01:22:12;;;;;;;13.52;7.93;;;26.80;65.40;;;;;;5034794;28;20804;-80
2022/08/19 01:24:38;;;;;;;10.25;7.75;;;26.80;65.60;;;;;;5034783;28;20068;-80
2022/08/19 01:27:05;;;;;;;10.82;8.05;;;26.80;65.50;;;;;;5033929;28;20033;-80
2022/08/19 01:29:32;;;;;;;11.88;7.55;;;26.90;65.60;;;;;;5016957;28;20390;-80
2022/08/19 01:32:00;;;;;;;11.07;7.50;;;26.80;65.70;;;;;;5034548;28;20029;-80
2022/08/19 01:34:25;;;;;;;10.50;7.70;;;26.80;65.70;;;;;;5034648;28;20053;-80
2022/08/19 01:36:51;;;;;;;10.32;7.50;;;26.80;65.70;;;;;;5032587;28;20079;-79
2022/08/19 01:39:21;;;;;;;10.18;7.00;;;26.80;65.60;;;;;;5034511;28;20485;-80
2022/08/19 01:41:48;;;;;;;13.43;7.65;;;26.80;65.60;;;;;;5034307;28;20021;-80
2022/08/19 01:44:14;;;;;;;11.48;7.15;;;26.80;65.80;;;;;;5034382;28;20047;-80
2022/08/19 01:46:42;;;;;;;10.13;7.72;;;26.80;66.10;;;;;;5015795;28;20079;-79
2022/08/19 01:49:08;;;;;;;11.93;7.82;;;26.70;66.20;;;;;;5034577;28;20064;-79
2022/08/19 01:51:35;;;;;;;9.70;7.20;;;26.70;66.60;;;;;;5032903;28;20025;-80
2022/08/19 01:54:01;;;;;;;10.68;7.82;;;26.70;66.60;;;;;;5034395;28;20026;-79
2022/08/19 01:56:26;;;;;;;9.65;7.40;;;26.70;66.50;;;;;;5033198;28;20417;-79
2022/08/19 01:59:01;;;;;;;9.98;7.43;;;26.70;66.40;;;;;;5033967;28;20112;-80
2022/08/19 02:01:27;;;;;;;10.98;7.22;;;26.70;66.60;;;;;;5034110;28;20037;-79
2022/08/19 02:03:53;;;;;;;10.13;7.38;;;26.70;66.60;;;;;;5034310;28;20445;-80
2022/08/19 02:06:20;;;;;;;11.85;7.78;;;26.80;66.50;;;;;;5031895;28;20037;-79
2022/08/19 02:08:47;;;;;;;12.80;7.55;;;26.80;66.90;;;;;;5033909;28;20029;-79
2022/08/19 02:11:22;;;;;;;11.00;7.70;;;26.80;66.60;;;;;;5032703;28;20072;-79
2022/08/19 02:13:49;;;;;;;12.48;7.68;;;26.80;67.00;;;;;;5032528;28;20557;-80
2022/08/19 02:16:17;;;;;;;10.80;7.78;;;26.70;66.90;;;;;;5032987;28;20032;-80
2022/08/19 02:18:43;;;;;;;10.07;7.13;;;26.70;67.00;;;;;;5033679;28;20032;-80
2022/08/19 02:21:10;;;;;;;11.13;8.00;;;26.70;67.30;;;;;;5015832;28;20413;-80
2022/08/19 02:23:36;;;;;;;13.20;7.60;;;26.70;67.50;;;;;;5033600;28;20034;-80
2022/08/19 02:26:02;;;;;;;12.48;8.48;;;26.70;67.30;;;;;;5032854;28;20087;-79
2022/08/19 02:28:28;;;;;;;13.65;8.48;;;26.70;67.60;;;;;;5033951;28;20388;-79
2022/08/19 02:30:54;;;;;;;12.10;7.82;;;26.70;67.60;;;;;;5032123;28;20041;-79
2022/08/19 02:33:19;;;;;;;15.15;7.65;;;26.70;67.70;;;;;;5033261;28;20053;-79
2022/08/19 02:35:46;;;;;;;15.55;7.47;;;26.60;67.90;;;;;;5031479;28;20486;-79
2022/08/19 02:38:25;;;;;;;12.50;7.95;;;26.60;67.80;;;;;;5032308;28;20065;-79
2022/08/19 02:41:05;;;;;;;12.32;7.75;;;26.60;67.90;;;;;;5032046;28;20029;-79
2022/08/19 02:43:32;;;;;;;13.80;8.32;;;26.60;67.80;;;;;;5033210;28;20402;-79
2022/08/19 02:45:58;;;;;;;14.30;7.82;;;26.60;67.80;;;;;;5032419;28;20112;-80
2022/08/19 02:48:25;;;;;;;12.48;7.43;;;26.60;67.70;;;;;;5033130;28;20068;-79
2022/08/19 02:50:54;;;;;;;14.13;8.27;;;26.60;68.00;;;;;;5031749;28;20041;-79
2022/08/19 02:53:22;;;;;;;13.85;8.27;;;26.60;68.10;;;;;;5015124;28;20497;-80
2022/08/19 02:55:49;;;;;;;10.90;7.35;;;26.60;67.80;;;;;;5032243;28;20030;-80
2022/08/19 02:58:16;;;;;;;14.20;7.72;;;26.60;67.90;;;;;;5032969;28;20103;-79
2022/08/19 03:00:45;;;;;;;14.30;7.75;;;26.60;68.00;;;;;;5032853;28;20401;-79
2022/08/19 03:03:14;;;;;;;11.63;7.88;;;26.60;68.30;;;;;;5032790;28;20025;-79
2022/08/19 03:05:40;;;;;;;10.07;7.05;;;26.60;67.80;;;;;;5032177;28;20037;-79
2022/08/19 03:08:06;;;;;;;11.43;7.78;;;26.60;67.70;;;;;;5014989;28;20450;-80
2022/08/19 03:10:33;;;;;;;11.43;7.78;;;26.60;67.90;;;;;;5031492;28;20436;-79
2022/08/19 03:12:58;;;;;;;10.95;8.02;;;26.60;67.80;;;;;;5031448;28;20060;-79
2022/08/19 03:15:25;;;;;;;10.80;7.03;;;26.60;67.80;;;;;;5030754;28;20052;-80
2022/08/19 03:17:50;;;;;;;11.43;8.02;;;26.60;67.60;;;;;;5032512;28;20030;-80
2022/08/19 03:20:16;;;;;;;11.43;8.63;;;26.60;67.60;;;;;;5032510;28;20030;-80
2022/08/19 03:22:42;;;;;;;14.57;8.65;;;26.60;67.70;;;;;;5032377;28;20526;-80
2022/08/19 03:25:08;;;;;;;10.80;7.85;;;26.60;67.90;;;;;;5031664;28;20053;-79
2022/08/19 03:27:34;;;;;;;11.13;7.68;;;26.50;67.60;;;;;;5032607;28;20444;-79
2022/08/19 03:30:00;;;;;;;10.88;7.63;;;26.60;67.70;;;;;;5032368;28;20033;-79
2022/08/19 03:32:26;;;;;;;9.25;7.72;;;26.60;67.60;;;;;;5032281;28;20396;-79
2022/08/19 03:34:52;;;;;;;9.20;7.30;;;26.60;67.60;;;;;;5031079;28;20121;-79
2022/08/19 03:37:18;;;;;;;12.35;7.95;;;26.60;67.50;;;;;;5013996;28;20025;-79
2022/08/19 03:39:44;;;;;;;12.55;7.57;;;26.60;67.60;;;;;;5032215;28;20025;-80
2022/08/19 03:42:11;;;;;;;13.00;9.45;;;26.60;67.40;;;;;;5030433;28;20025;-79
2022/08/19 03:44:42;;;;;;;14.30;9.82;;;26.60;67.40;;;;;;5032169;28;20079;-79
2022/08/19 03:47:07;;;;;;;14.55;10.85;;;26.60;67.50;;;;;;5030173;28;20498;-79
2022/08/19 03:49:34;;;;;;;13.88;9.95;;;26.50;67.40;;;;;;5030843;28;20025;-79
2022/08/19 03:52:01;;;;;;;12.05;9.90;;;26.50;67.50;;;;;;5032345;28;20037;-79
2022/08/19 03:54:27;;;;;;;15.15;9.40;;;26.50;67.60;;;;;;5032047;28;20115;-78
2022/08/19 03:56:55;;;;;;;12.88;9.27;;;26.50;67.50;;;;;;5031147;28;20021;-78
2022/08/19 03:59:27;;;;;;;10.20;7.90;;;26.50;67.60;;;;;;5030764;28;20487;-79
2022/08/19 04:01:56;;;;;;;13.10;8.50;;;26.50;67.50;;;;;;5031795;28;20029;-80
2022/08/19 04:04:22;;;;;;;13.38;8.75;;;26.50;67.70;;;;;;5014095;28;20059;-79
2022/08/19 04:06:49;;;;;;;12.32;8.60;;;26.40;67.70;;;;;;5029801;28;20080;-80
2022/08/19 04:09:15;;;;;;;11.77;8.05;;;26.40;67.80;;;;;;5030839;28;20039;-79
2022/08/19 04:11:44;;;;;;;10.95;8.30;;;26.40;67.80;;;;;;5030617;28;20033;-79
2022/08/19 04:14:13;;;;;;;14.55;8.70;;;26.30;67.90;;;;;;4997984;28;20029;-79
2022/08/19 04:16:39;;;;;;;12.73;8.10;;;26.30;67.90;;;;;;5029728;28;20045;-79
2022/08/19 04:19:06;;;;;;;10.18;7.85;;;26.30;68.00;;;;;;5013900;28;20386;-79
2022/08/19 04:21:33;;;;;;;11.13;8.10;;;26.30;68.00;;;;;;5013991;28;20112;-79
2022/08/19 04:23:59;;;;;;;10.77;8.05;;;26.30;68.50;;;;;;5030633;28;20033;-79
2022/08/19 04:26:34;;;;;;;11.32;8.40;;;26.30;67.90;;;;;;5030890;28;20029;-79
2022/08/19 04:29:04;;;;;;;10.32;7.80;;;26.30;68.00;;;;;;5031670;28;20099;-79
2022/08/19 04:31:35;;;;;;;10.63;8.40;;;26.30;68.00;;;;;;5031585;28;20083;-79
2022/08/19 04:34:03;;;;;;;11.32;7.68;;;26.30;68.00;;;;;;5030360;28;20040;-79
2022/08/19 04:36:33;;;;;;;12.05;8.20;;;26.30;68.00;;;;;;5029499;28;20040;-78
2022/08/19 04:39:04;;;;;;;11.10;7.43;;;26.30;68.00;;;;;;5031559;28;20049;-79
2022/08/19 04:44:17;;;;;;;9.75;7.75;;;26.30;67.80;;;;;;5031531;28;20078;-79
2022/08/19 04:46:44;;;;;;;9.55;7.47;;;26.30;67.70;;;;;;5030699;28;20021;-79
2022/08/19 04:49:11;;;;;;;10.95;8.20;;;26.30;67.70;;;;;;5030186;28;20120;-79
2022/08/19 04:51:40;;;;;;;9.57;7.95;;;26.40;67.60;;;;;;5031315;28;20037;-79
2022/08/19 04:54:05;;;;;;;12.48;7.90;;;26.40;67.50;;;;;;5033671;28;20052;-79
2022/08/19 04:56:31;;;;;;;10.75;7.35;;;26.40;68.10;;;;;;5034486;28;20061;-79
2022/08/19 04:58:57;;;;;;;10.48;7.63;;;26.40;67.50;;;;;;5035189;28;20054;-79
2022/08/19 05:01:26;;;;;;;10.95;7.70;;;26.40;67.50;;;;;;5031545;28;20030;-79
2022/08/19 05:03:52;;;;;;;9.15;7.43;;;26.30;67.50;;;;;;5022541;28;20026;-78
2022/08/19 05:06:20;;;;;;;9.80;8.05;;;26.30;67.60;;;;;;5033003;28;20029;-79
2022/08/19 05:08:47;;;;;;;10.15;7.32;;;26.30;67.60;;;;;;5000687;28;20029;-78
2022/08/19 05:11:14;;;;;;;11.27;7.85;;;26.30;67.60;;;;;;5034738;28;20397;-78
2022/08/19 05:13:40;;;;;;;12.10;7.85;;;26.30;67.50;;;;;;5034643;28;20026;-79
2022/08/19 05:16:06;;;;;;;11.05;8.25;;;26.30;67.50;;;;;;5034018;28;20064;-78
2022/08/19 05:24:08;;;;;;;11.07;7.93;;;26.30;67.60;;;;;;5034723;28;20069;-79
2022/08/19 05:26:39;;;;;;;13.20;8.40;;;26.30;67.70;;;;;;5033838;28;20482;-79
2022/08/19 05:29:07;;;;;;;10.27;7.88;;;26.30;67.90;;;;;;5034694;28;20516;-79
2022/08/19 05:31:33;;;;;;;10.43;8.02;;;26.20;67.90;;;;;;5033171;28;20488;-78
2022/08/19 05:33:59;;;;;;;11.63;7.55;;;26.20;67.90;;;;;;5034356;28;20083;-79
2022/08/19 05:36:26;;;;;;;11.18;7.60;;;26.20;67.90;;;;;;5034061;28;20021;-80
2022/08/19 05:38:53;;;;;;;9.88;8.02;;;26.20;68.00;;;;;;5033251;28;20385;-79
2022/08/19 05:41:19;;;;;;;9.55;7.72;;;26.20;68.00;;;;;;5050006;28;20398;-79
2022/08/19 05:43:45;;;;;;;11.82;8.23;;;26.20;68.00;;;;;;5033189;28;20036;-79
2022/08/19 05:46:18;;;;;;;14.60;8.13;;;26.20;68.10;;;;;;5015669;28;20029;-80
2022/08/19 05:48:44;;;;;;;10.63;7.90;;;26.20;68.10;;;;;;5033178;28;20033;-80
2022/08/19 05:51:10;;;;;;;11.38;7.75;;;26.10;68.00;;;;;;5033023;28;20444;-80
2022/08/19 05:53:36;;;;;;;11.35;8.13;;;26.20;68.10;;;;;;5032763;28;20166;-80
2022/08/19 05:56:14;;;;;;;10.07;7.85;;;26.20;68.10;;;;;;5033330;28;20140;-79
2022/08/19 05:58:41;;;;;;;9.73;8.05;;;26.20;68.00;;;;;;5034094;28;20030;-79
2022/08/19 06:01:15;;;;;;;10.98;8.07;;;26.20;68.00;;;;;;5033146;28;20393;-80
2022/08/19 06:03:42;;;;;;;11.90;7.93;;;26.20;68.10;;;;;;5032431;28;20079;-80
2022/08/19 06:06:10;;;;;;;10.43;7.50;;;26.20;67.90;;;;;;5033123;28;20036;-79
2022/08/19 06:08:37;;;;;;;11.10;8.02;;;26.30;68.00;;;;;;5033857;28;20033;-79
2022/08/19 06:11:16;;;;;;;13.38;7.95;;;26.20;67.80;;;;;;5033870;28;20044;-79
2022/08/19 06:13:43;;;;;;;9.65;7.68;;;26.20;67.90;;;;;;5033725;28;20497;-79
2022/08/19 06:16:09;;;;;;;11.93;8.43;;;26.20;67.90;;;;;;5032897;28;20457;-79
2022/08/19 06:18:35;;;;;;;13.75;8.43;;;26.30;67.90;;;;;;5033666;28;20120;-79
2022/08/19 06:21:03;;;;;;;13.60;8.25;;;26.30;67.90;;;;;;5033746;28;20474;-80
2022/08/19 06:23:30;;;;;;;12.67;8.60;;;26.20;68.00;;;;;;5033598;28;20033;-79
2022/08/19 06:25:56;;;;;;;9.85;8.10;;;26.20;68.00;;;;;;5031638;28;20119;-79
2022/08/19 06:28:23;;;;;;;11.02;8.15;;;26.20;68.10;;;;;;5033445;28;20443;-80
2022/08/19 06:30:51;;;;;;;14.10;8.50;;;26.20;68.20;;;;;;5033409;28;20060;-80
2022/08/19 06:33:16;;;;;;;14.98;8.35;;;26.30;68.20;;;;;;5033188;28;20028;-79
2022/08/19 06:35:42;;;;;;;14.25;8.98;;;26.30;68.10;;;;;;5032865;28;20026;-80
2022/08/19 06:38:09;;;;;;;13.23;9.00;;;26.30;68.10;;;;;;5032004;28;20366;-80
2022/08/19 06:40:37;;;;;;;12.02;8.65;;;26.30;68.30;;;;;;5033352;28;20030;-80
2022/08/19 06:43:03;;;;;;;15.82;9.23;;;26.20;68.10;;;;;;5033176;28;20462;-79
2022/08/19 06:45:30;;;;;;;11.82;8.57;;;26.20;68.30;;;;;;5032385;28;20038;-78
2022/08/19 06:47:56;;;;;;;11.60;8.68;;;26.20;68.30;;;;;;5031858;28;20025;-79
2022/08/19 06:50:24;;;;;;;16.42;9.50;;;26.20;68.20;;;;;;5033117;28;20021;-79
2022/08/19 06:52:50;;;;;;;11.30;8.35;;;26.20;68.20;;;;;;5031543;28;20045;-78
2022/08/19 06:55:17;;;;;;;13.10;8.90;;;26.30;68.30;;;;;;5032188;28;20018;-79
2022/08/19 06:57:45;;;;;;;11.73;8.90;;;26.30;68.20;;;;;;5032944;28;20505;-78
2022/08/19 07:00:13;;;;;;;13.10;8.95;;;26.30;68.20;;;;;;5032832;28;20024;-79
2022/08/19 07:02:43;;;;;;;10.57;8.52;;;26.30;68.20;;;;;;5033138;28;20389;-79
2022/08/19 07:05:09;;;;;;;11.00;8.98;;;26.30;68.20;;;;;;5031925;28;20115;-79
2022/08/19 07:07:35;;;;;;;11.80;8.68;;;26.30;68.00;;;;;;5031470;28;20052;-78
2022/08/19 07:10:02;;;;;;;11.15;8.00;;;26.30;67.90;;;;;;5031515;28;20053;-78
2022/08/19 07:12:33;;;;;;;12.38;8.50;;;26.30;67.90;;;;;;5032208;28;20050;-78
2022/08/19 07:14:59;;;;;;;11.18;8.80;;;26.30;68.00;;;;;;5048147;28;20416;-78
2022/08/19 07:17:25;;;;;;;13.60;10.30;;;26.30;68.00;;;;;;5031270;28;20029;-79
2022/08/19 07:19:51;;;;;;;14.60;10.02;;;26.30;68.00;;;;;;5032540;28;20028;-79
2022/08/19 07:22:17;;;;;;;15.55;10.40;;;26.30;68.10;;;;;;5031218;28;20393;-79
2022/08/19 07:24:43;;;;;;;15.73;9.98;;;26.30;68.40;;;;;;5031648;28;20033;-79
2022/08/19 07:27:09;;;;;;;13.60;9.90;;;26.30;68.40;;;;;;5030610;28;20120;-80
2022/08/19 07:29:36;;;;;;;13.73;10.60;;;26.30;68.40;;;;;;5031293;28;20116;-79
2022/08/19 07:32:03;;;;;;;14.93;10.50;;;26.30;68.70;;;;;;5032100;28;20455;-79
2022/08/19 07:34:30;;;;;;;11.60;9.90;;;26.20;68.60;;;;;;5032567;28;20029;-80
2022/08/19 07:36:57;;;;;;;15.60;10.55;;;26.20;68.60;;;;;;5030410;28;20042;-80
2022/08/19 07:39:26;;;;;;;16.98;10.82;;;26.20;68.60;;;;;;5014710;28;20065;-80
2022/08/19 07:41:53;;;;;;;15.55;9.90;;;26.20;68.80;;;;;;5014544;28;20033;-79
2022/08/19 07:44:21;;;;;;;14.23;9.98;;;26.20;68.70;;;;;;5030964;28;20037;-79
2022/08/19 07:46:51;;;;;;;15.25;10.90;;;26.30;68.60;;;;;;5030117;28;20036;-79
2022/08/19 07:49:18;;;;;;;15.60;10.23;;;26.30;68.40;;;;;;5032146;28;20414;-80
2022/08/19 07:51:57;;;;;;;14.02;10.30;;;26.30;68.40;;;;;;5030804;28;20037;-80
2022/08/19 07:54:24;;;;;;;16.33;11.00;;;26.30;68.50;;;;;;5032022;28;20072;-80
2022/08/19 07:56:50;;;;;;;14.95;10.35;;;26.30;68.50;;;;;;5031151;28;20640;-79
2022/08/19 07:59:17;;;;;;;14.88;10.68;;;26.30;68.40;;;;;;5031822;28;20025;-79
2022/08/19 08:01:44;;;;;;;14.52;10.32;;;26.30;68.40;;;;;;5030720;28;20475;-79
2022/08/19 08:09:42;;;;;;;13.60;11.00;;;26.30;68.10;;;;;;5030571;28;20041;-79
2022/08/19 08:12:10;;;;;;;13.00;10.52;;;26.40;68.30;;;;;;5031583;28;20104;-79
2022/08/19 08:14:46;;;;;;;14.18;10.25;;;26.40;68.20;;;;;;5014181;28;20029;-80
2022/08/19 08:17:13;;;;;;;13.57;11.05;;;26.40;68.20;;;;;;5013306;28;20494;-80
2022/08/19 08:19:40;;;;;;;13.68;10.23;;;26.40;68.20;;;;;;5031655;28;20056;-80
2022/08/19 08:23:21;;;;;;;15.90;11.27;;;26.40;68.10;;;;;;5031527;28;20030;-79
2022/08/19 08:24:57;;;;;;;14.50;10.52;;;26.40;68.10;;;;;;5031328;28;20061;-80
2022/08/19 08:27:24;;;;;;;12.65;11.00;;;26.40;68.20;;;;;;4998635;28;20134;-81
2022/08/19 08:29:50;;;;;;;13.27;10.10;;;26.40;68.40;;;;;;5034587;28;20034;-80
2022/08/19 08:32:16;;;;;;;14.45;11.07;;;26.40;68.20;;;;;;5035450;28;20038;-80
2022/08/19 08:34:42;;;;;;;14.18;10.80;;;26.40;68.20;;;;;;5035562;28;20079;-80
2022/08/19 08:37:08;;;;;;;15.20;11.13;;;26.40;68.30;;;;;;5034649;28;20489;-80
2022/08/19 08:39:34;;;;;;;14.93;10.93;;;26.40;68.40;;;;;;5034359;28;20025;-80
2022/08/19 08:42:30;;;;;;;16.17;12.10;;;26.40;68.40;;;;;;5035490;28;20029;-79
2022/08/19 08:45:04;;;;;;;13.65;11.73;;;26.40;68.70;;;;;;5034306;28;20109;-79
2022/08/19 08:47:36;;;;;;;13.93;10.95;;;26.30;68.70;;;;;;5035016;28;20060;-79
2022/08/19 08:50:07;;;;;;;15.75;12.95;;;26.40;69.20;;;;;;5035343;28;20428;-80
2022/08/19 08:52:41;;;;;;;13.48;11.50;;;26.40;68.90;;;;;;5034063;28;20048;-80
2022/08/19 08:55:14;;;;;;;14.25;12.00;;;26.40;68.70;;;;;;5034488;28;20036;-79
2022/08/19 08:58:09;;;;;;;13.70;11.48;;;26.30;68.70;;;;;;5033901;28;20405;-79
2022/08/19 09:00:42;;;;;;;13.18;11.70;;;26.40;68.70;;;;;;5028358;28;20107;-79
2022/08/19 09:03:19;;;;;;;14.38;12.23;;;26.30;69.20;;;;;;5034778;28;20026;-80
2022/08/19 09:06:11;;;;;;;14.52;12.57;;;26.30;69.00;;;;;;5034304;28;20370;-80
2022/08/19 09:08:47;;;;;;;13.93;11.15;;;26.30;68.90;;;;;;5034079;28;20033;-80
2022/08/19 09:11:29;;;;;;;14.38;11.65;;;26.30;69.00;;;;;;5034890;28;20160;-80
2022/08/19 09:14:06;;;;;;;16.15;12.48;;;26.30;68.90;;;;;;5033884;28;20033;-80
2022/08/19 09:16:32;;;;;;;16.75;12.15;;;26.30;68.80;;;;;;5033922;28;20025;-80
2022/08/19 09:19:03;;;;;;;14.65;12.35;;;26.30;69.20;;;;;;5016962;28;20025;-80
2022/08/19 09:21:29;;;;;;;15.15;12.65;;;26.30;69.30;;;;;;5034652;28;20036;-80
2022/08/19 09:23:55;;;;;;;13.98;11.98;;;26.40;69.10;;;;;;5033722;28;20037;-80
2022/08/19 09:26:22;;;;;;;15.48;11.90;;;26.40;68.80;;;;;;5016211;28;20029;-80
2022/08/19 09:28:52;;;;;;;16.10;12.02;;;26.40;68.80;;;;;;5035094;28;20033;-80
2022/08/19 09:31:20;;;;;;;15.63;12.52;;;26.40;69.20;;;;;;5034549;28;20104;-80
2022/08/19 09:33:47;;;;;;;13.53;11.20;;;26.40;69.30;;;;;;5033507;28;20416;-80
2022/08/19 09:36:15;;;;;;;15.15;12.00;;;26.40;69.30;;;;;;5033764;28;20311;-80
2022/08/19 09:38:41;;;;;;;12.93;11.45;;;26.40;69.40;;;;;;4999702;28;20025;-80
2022/08/19 09:41:13;;;;;;;14.50;11.68;;;26.40;69.60;;;;;;5033100;28;20030;-79
2022/08/19 09:43:40;;;;;;;15.38;11.88;;;26.40;69.50;;;;;;5034355;28;20034;-80
2022/08/19 09:46:09;;;;;;;14.45;11.82;;;26.40;69.20;;;;;;5033496;28;20029;-80
2022/08/19 09:48:36;;;;;;;15.05;12.32;;;26.40;70.10;;;;;;5034277;28;20120;-80
2022/08/19 09:51:08;;;;;;;14.45;11.55;;;26.40;69.30;;;;;;5033167;28;20029;-80
2022/08/19 09:53:35;;;;;;;14.05;11.48;;;26.40;69.30;;;;;;5033133;28;20030;-80
2022/08/19 09:56:02;;;;;;;14.85;11.55;;;26.40;69.30;;;;;;5033280;28;20026;-80
2022/08/19 09:58:30;;;;;;;13.95;10.80;;;26.40;69.40;;;;;;5033929;28;20109;-80
2022/08/19 10:00:58;;;;;;;14.20;11.20;;;26.40;69.50;;;;;;5034040;28;20025;-80
2022/08/19 10:03:24;;;;;;;15.00;11.32;;;26.30;69.50;;;;;;5033934;28;20025;-80
2022/08/19 10:05:50;;;;;;;14.75;11.52;;;26.40;69.50;;;;;;5033133;28;20026;-80
2022/08/19 10:08:22;;;;;;;15.02;11.30;;;26.30;69.70;;;;;;5032926;28;20064;-80
2022/08/19 10:10:49;;;;;;;13.00;11.02;;;26.30;69.30;;;;;;5033771;28;20113;-80
2022/08/19 10:13:17;;;;;;;14.57;11.02;;;26.40;69.30;;;;;;5034385;28;20083;-80
2022/08/19 10:15:43;;;;;;;15.05;11.38;;;26.30;69.30;;;;;;5032969;28;20474;-80
2022/08/19 10:18:09;;;;;;;15.93;11.55;;;26.30;69.60;;;;;;5032496;28;20440;-80
2022/08/19 10:20:35;;;;;;;14.10;10.93;;;26.40;69.40;;;;;;5033756;28;20022;-79
2022/08/19 10:23:02;;;;;;;13.75;11.35;;;26.40;69.50;;;;;;5033517;28;20029;-80
2022/08/19 10:25:28;;;;;;;13.35;11.02;;;26.40;69.40;;;;;;5032697;28;20069;-79
2022/08/19 10:27:54;;;;;;;16.23;11.20;;;26.40;69.40;;;;;;5033587;28;20490;-79
2022/08/19 10:30:21;;;;;;;14.65;11.30;;;26.40;69.60;;;;;;5033829;28;20112;-80
2022/08/19 10:32:46;;;;;;;13.73;11.40;;;26.30;69.70;;;;;;5033240;28;20030;-79
2022/08/19 10:35:14;;;;;;;13.98;11.20;;;26.30;69.70;;;;;;5031399;28;20058;-80
2022/08/19 10:37:40;;;;;;;13.88;11.23;;;26.30;69.60;;;;;;5033279;28;20021;-81
2022/08/19 10:40:07;;;;;;;16.20;11.25;;;26.30;69.80;;;;;;5033239;28;20025;-80
2022/08/19 10:42:34;;;;;;;16.23;11.63;;;26.30;69.90;;;;;;5032106;28;20061;-80
2022/08/19 10:45:01;;;;;;;13.25;10.80;;;26.30;69.90;;;;;;5033076;28;20037;-80
2022/08/19 10:47:27;;;;;;;15.18;11.45;;;26.30;69.80;;;;;;5031166;28;20116;-80
2022/08/19 10:52:44;;;;;;;13.65;10.45;;;26.30;69.70;;;;;;5032789;28;20381;-79
2022/08/19 10:57:54;;;;;;;11.77;10.18;;;26.30;69.70;;;;;;5032920;28;20103;-78
2022/08/19 11:00:22;;;;;;;14.00;10.18;;;26.30;69.60;;;;;;5032958;28;20021;-78
2022/08/19 11:02:48;;;;;;;11.50;10.30;;;26.30;69.80;;;;;;5031454;28;20486;-78
2022/08/19 11:05:15;;;;;;;12.25;10.68;;;26.30;69.60;;;;;;5032035;28;20390;-78
2022/08/19 11:07:41;;;;;;;12.75;10.38;;;26.30;69.80;;;;;;5031587;28;20037;-78
2022/08/19 11:10:09;;;;;;;13.68;10.23;;;26.30;69.70;;;;;;5031769;28;20033;-79
2022/08/19 11:12:39;;;;;;;12.70;10.20;;;26.30;69.90;;;;;;5031287;28;20095;-79
2022/08/19 11:15:08;;;;;;;14.18;11.27;;;26.30;69.80;;;;;;5014676;28;20029;-79
2022/08/19 11:17:35;;;;;;;14.43;10.63;;;26.30;69.60;;;;;;5014942;28;20030;-78
2022/08/19 11:20:04;;;;;;;16.30;10.73;;;26.30;69.60;;;;;;5032634;28;20041;-78
2022/08/19 11:22:30;;;;;;;15.57;10.55;;;26.30;69.80;;;;;;5032292;28;20488;-79
2022/08/19 11:24:56;;;;;;;16.17;10.32;;;26.30;69.70;;;;;;5032455;28;20037;-79
2022/08/19 11:27:21;;;;;;;11.50;10.07;;;26.30;69.70;;;;;;5030445;28;20033;-79
2022/08/19 11:29:47;;;;;;;15.05;10.38;;;26.30;69.80;;;;;;5031237;28;20086;-79
2022/08/19 11:32:13;;;;;;;13.80;10.20;;;26.30;69.70;;;;;;5030660;28;20103;-79
2022/08/19 11:34:39;;;;;;;14.05;10.38;;;26.30;69.70;;;;;;5032443;28;20505;-79
2022/08/19 11:37:05;;;;;;;13.90;10.00;;;26.30;69.80;;;;;;5031508;28;20068;-79
2022/08/19 11:39:33;;;;;;;11.90;10.15;;;26.30;69.90;;;;;;5031427;28;20473;-79
2022/08/19 11:42:01;;;;;;;12.27;10.63;;;26.30;69.60;;;;;;5032088;28;20041;-79
2022/08/19 11:44:30;;;;;;;13.30;9.90;;;26.30;69.60;;;;;;5032086;28;20033;-79
2022/08/19 11:46:56;;;;;;;13.27;9.95;;;26.30;69.80;;;;;;5031345;28;20076;-79
2022/08/19 11:49:22;;;;;;;12.93;10.57;;;26.30;69.60;;;;;;5030906;28;20029;-78
2022/08/19 11:51:50;;;;;;;13.52;10.13;;;26.30;69.90;;;;;;5014427;28;20033;-79
2022/08/19 11:54:17;;;;;;;14.52;10.25;;;26.30;69.80;;;;;;5031864;28;20029;-79
2022/08/19 11:56:45;;;;;;;13.75;10.20;;;26.30;69.70;;;;;;5030121;28;20030;-79
2022/08/19 11:59:11;;;;;;;13.60;9.43;;;26.30;69.80;;;;;;5031760;28;20021;-79
2022/08/19 12:01:37;;;;;;;13.52;9.73;;;26.30;69.80;;;;;;5031524;28;20284;-79
2022/08/19 12:04:06;;;;;;;11.73;9.27;;;26.30;70.40;;;;;;5030558;28;20034;-79
2022/08/19 12:06:37;;;;;;;12.90;9.40;;;26.30;70.00;;;;;;5031039;28;20040;-79
2022/08/19 12:09:08;;;;;;;10.38;9.05;;;26.30;70.10;;;;;;5030716;28;20116;-79
2022/08/19 12:11:35;;;;;;;12.45;9.20;;;26.20;69.70;;;;;;5031684;28;20025;-79
2022/08/19 12:14:02;;;;;;;13.80;9.20;;;26.30;69.70;;;;;;5031663;28;20068;-79
2022/08/19 12:16:31;;;;;;;11.70;9.18;;;26.30;69.80;;;;;;5030939;28;20394;-79
2022/08/19 12:18:58;;;;;;;11.27;8.63;;;26.20;69.80;;;;;;5030619;28;20018;-78
2022/08/19 12:21:28;;;;;;;12.13;8.95;;;26.20;69.60;;;;;;5030078;28;20034;-78
2022/08/19 12:23:56;;;;;;;10.25;7.97;;;26.30;69.60;;;;;;5031550;28;20409;-78
2022/08/19 12:26:23;;;;;;;11.32;8.70;;;26.30;69.70;;;;;;5029541;28;20469;-78
2022/08/19 12:28:49;;;;;;;11.52;8.40;;;26.30;69.40;;;;;;5031606;28;20040;-78
2022/08/19 12:31:17;;;;;;;11.30;8.38;;;26.30;69.40;;;;;;5030476;28;20452;-79
2022/08/19 12:33:42;;;;;;;10.77;7.90;;;26.30;69.30;;;;;;5030125;28;20112;-78
2022/08/19 12:36:11;;;;;;;13.18;8.63;;;26.30;69.30;;;;;;5029547;28;20105;-79
2022/08/19 12:38:38;;;;;;;12.07;8.38;;;26.30;69.30;;;;;;5031298;28;20439;-79
2022/08/19 12:41:06;;;;;;;12.77;7.90;;;26.30;69.30;;;;;;5031505;28;20037;-79
2022/08/19 12:43:35;;;;;;;10.23;8.05;;;26.30;69.00;;;;;;5031209;28;20473;-78
2022/08/19 12:46:02;;;;;;;10.93;7.95;;;26.40;69.10;;;;;;5029503;28;20037;-78
2022/08/19 12:48:28;;;;;;;10.07;7.90;;;26.30;69.00;;;;;;5030508;28;20034;-79
2022/08/19 12:50:54;;;;;;;10.23;7.00;;;26.30;68.80;;;;;;5031488;28;20029;-79
2022/08/19 12:53:20;;;;;;;8.60;7.38;;;26.30;68.90;;;;;;5031154;28;20032;-78
2022/08/19 12:55:46;;;;;;;10.77;7.25;;;26.40;68.90;;;;;;5029401;28;20100;-79